Time;durP1;ratioP1;P1;durP2;ratioP2;P2;SDS_P1;SDS_P2;PMS_P1;PMS_P2;Temp;Humidity;BMP_temperature;BMP_pressure;BME280_temperature;BME280_humidity;BME280_pressure;Samples;Min_cycle;Max_cycle;Signal;HPM_P1;HPM_P2
2022/10/29 00:01:07;;;;;;;24.65;12.78;;;;;;;9.90;100.00;150143.06;1762778;81;21004;-92
2022/10/29 00:03:35;;;;;;;20.50;12.50;;;;;;;9.88;100.00;150139.16;1711220;82;21460;-92
2022/10/29 00:06:11;;;;;;;21.02;12.23;;;;;;;9.86;100.00;150133.97;1748489;80;21001;-91
2022/10/29 00:08:38;;;;;;;19.32;11.78;;;;;;;9.83;100.00;150124.87;1785285;80;20956;-92
2022/10/29 00:11:07;;;;;;;22.95;13.13;;;;;;;9.82;100.00;150122.28;1785416;80;21163;-91
2022/10/29 00:13:36;;;;;;;20.00;11.97;;;;;;;9.77;100.00;150109.33;1760140;80;22076;-90
2022/10/29 00:16:13;;;;;;;24.77;13.85;;;;;;;9.74;100.00;150104.14;1785241;80;21012;-91
2022/10/29 00:18:42;;;;;;;20.45;13.18;;;;;;;9.72;100.00;150098.95;1760612;80;21046;-92
2022/10/29 00:21:26;;;;;;;22.15;14.18;;;;;;;9.68;100.00;150088.59;1781223;78;21095;-91
2022/10/29 00:23:51;;;;;;;25.32;14.68;;;;;;;9.67;100.00;150084.69;1768953;79;22091;-92
2022/10/29 00:26:20;;;;;;;26.02;16.10;;;;;;;9.64;100.00;150078.22;1761635;80;21008;-92
2022/10/29 00:28:50;;;;;;;27.32;16.57;;;;;;;9.63;100.00;150074.31;1780161;80;21091;-92
2022/10/29 00:31:19;;;;;;;29.87;17.48;;;;;;;9.60;100.00;150067.81;1757751;80;20957;-92
2022/10/29 00:33:46;;;;;;;28.98;18.87;;;;;;;9.58;100.00;150062.62;1785496;80;21052;-91
2022/10/29 00:36:15;;;;;;;32.03;18.45;;;;;;;9.57;100.00;150060.03;1759885;80;21166;-91
2022/10/29 00:38:44;;;;;;;32.10;21.40;;;;;;;9.57;100.00;150060.03;1784438;80;21529;-91
2022/10/29 00:41:14;;;;;;;33.95;20.88;;;;;;;9.55;100.00;150056.17;1784464;78;21135;-91
2022/10/29 00:43:51;;;;;;;31.45;20.88;;;;;;;9.57;100.00;150060.03;1784220;80;21032;-90
2022/10/29 00:46:30;;;;;;;42.65;22.80;;;;;;;9.56;100.00;150057.45;1775362;78;21483;-92
2022/10/29 00:49:01;;;;;;;31.60;21.73;;;;;;;9.58;100.00;150062.62;1754986;79;21073;-91
2022/10/29 00:51:31;;;;;;;37.08;22.82;;;;;;;9.57;100.00;150060.03;1783377;79;21033;-91
2022/10/29 00:54:02;;;;;;;35.05;21.65;;;;;;;9.56;100.00;150057.45;1766894;81;21045;-92
2022/10/29 00:56:31;;;;;;;33.23;22.85;;;;;;;9.56;100.00;150057.45;1784883;79;21079;-92
2022/10/29 00:58:58;;;;;;;33.73;22.42;;;;;;;9.55;100.00;150056.17;1783940;80;20913;-92
2022/10/29 01:01:25;;;;;;;34.43;21.80;;;;;;;9.56;100.00;150057.45;1782115;79;21811;-92
2022/10/29 01:03:53;;;;;;;36.73;22.60;;;;;;;9.56;100.00;150057.45;1775371;78;21363;-92
2022/10/29 01:06:21;;;;;;;36.03;22.20;;;;;;;9.54;100.00;150052.27;1771566;78;21052;-92
2022/10/29 01:08:51;;;;;;;32.78;22.20;;;;;;;9.53;100.00;150049.67;1766893;78;21161;-91
2022/10/29 01:11:35;;;;;;;34.10;23.35;;;;;;;9.53;100.00;150051.00;1773555;78;21131;-92
2022/10/29 01:14:13;;;;;;;31.68;21.73;;;;;;;9.52;100.00;150047.09;1770921;79;21859;-91
2022/10/29 01:16:54;;;;;;;33.50;22.00;;;;;;;9.52;100.00;150047.09;1763672;79;21057;-91
2022/10/29 01:19:38;;;;;;;34.08;23.38;;;;;;;9.53;100.00;150049.67;1764539;78;21103;-92
2022/10/29 01:22:33;;;;;;;33.85;22.75;;;;;;;9.53;100.00;150049.67;1782770;79;20885;-92
2022/10/29 01:25:53;;;;;;;34.00;22.17;;;;;;;9.54;100.00;150052.27;1768007;79;20993;-93
2022/10/29 01:28:54;;;;;;;30.77;21.40;;;;;;;9.54;100.00;150053.59;1777939;78;21734;-93
2022/10/29 01:31:41;;;;;;;34.25;21.52;;;;;;;9.56;100.00;150058.77;1775875;79;21503;-92
2022/10/29 01:34:23;;;;;;;31.80;21.80;;;;;;;9.57;100.00;150061.36;1768326;79;21039;-92
2022/10/29 01:37:17;;;;;;;31.85;20.90;;;;;;;9.59;100.00;150066.53;1785576;80;21031;-93
2022/10/29 01:40:23;;;;;;;29.57;20.02;;;;;;;9.60;100.00;150067.81;1786199;79;20925;-92
2022/10/29 01:43:13;;;;;;;31.12;20.92;;;;;;;9.63;100.00;150074.31;1768095;79;21470;-92
2022/10/29 01:45:59;;;;;;;28.77;18.62;;;;;;;9.62;100.00;150073.05;1759286;79;20968;-92
2022/10/29 01:48:37;;;;;;;30.85;20.55;;;;;;;9.64;100.00;150076.91;1745424;78;21525;-94
2022/10/29 01:51:09;;;;;;;26.07;18.50;;;;;;;9.66;100.00;150083.41;1774874;78;21111;-94
2022/10/29 01:53:36;;;;;;;27.32;18.80;;;;;;;9.69;100.00;150091.19;1768376;78;20996;-92
2022/10/29 01:56:03;;;;;;;26.33;18.57;;;;;;;9.70;100.00;150093.78;1769071;79;21136;-93
2022/10/29 01:58:32;;;;;;;30.60;17.90;;;;;;;9.75;100.00;150105.45;1750339;78;21079;-92
2022/10/29 02:01:50;;;;;;;28.17;17.92;;;;;;;9.77;100.00;150109.33;1754574;79;21438;-91
2022/10/29 02:04:50;;;;;;;26.93;18.32;;;;;;;9.80;100.00;150117.09;1756910;79;21485;-92
2022/10/29 02:07:50;;;;;;;27.22;18.05;;;;;;;9.84;100.00;150127.52;1779522;78;20947;-91
2022/10/29 02:10:30;;;;;;;25.20;17.42;;;;;;;9.87;100.00;150135.28;1781717;78;21503;-91
2022/10/29 02:12:58;;;;;;;29.23;17.87;;;;;;;9.90;100.00;150143.06;1777996;78;21013;-91
2022/10/29 02:15:40;;;;;;;26.20;17.37;;;;;;;9.93;100.00;150150.84;1770873;79;20981;-92
2022/10/29 02:18:08;;;;;;;24.23;16.77;;;;;;;9.97;100.00;150159.94;1772338;79;20996;-91
2022/10/29 02:20:42;;;;;;;22.65;16.65;;;;;;;10.00;100.00;150168.98;1766107;78;21005;-91
2022/10/29 02:23:10;;;;;;;22.87;16.80;;;;;;;10.03;100.00;150175.48;1785280;78;21241;-92
2022/10/29 02:25:38;;;;;;;26.55;18.25;;;;;;;10.06;100.00;150183.27;1775725;78;21470;-91
2022/10/29 02:28:06;;;;;;;26.23;18.17;;;;;;;10.10;100.00;150192.36;1775482;78;21053;-91
2022/10/29 02:30:33;;;;;;;25.08;17.75;;;;;;;10.12;100.00;150198.81;1781750;78;21449;-91
2022/10/29 02:33:01;;;;;;;23.50;17.55;;;;;;;10.14;100.00;150202.73;1752193;79;21052;-91
2022/10/29 02:35:29;;;;;;;28.80;18.37;;;;;;;10.17;100.00;150210.50;1784716;79;21193;-91
2022/10/29 02:37:57;;;;;;;24.02;17.25;;;;;;;10.17;100.00;150210.50;1752668;80;20977;-91
2022/10/29 02:40:24;;;;;;;28.57;18.10;;;;;;;10.17;100.00;150211.83;1715875;80;20941;-91
2022/10/29 02:42:51;;;;;;;25.15;17.85;;;;;;;10.17;100.00;150211.83;1783702;77;20976;-92
2022/10/29 02:45:20;;;;;;;25.75;18.42;;;;;;;10.16;100.00;150207.91;1784853;80;20901;-90
2022/10/29 02:47:47;;;;;;;28.77;18.52;;;;;;;10.15;100.00;150206.59;1786108;78;21128;-90
2022/10/29 02:50:14;;;;;;;31.77;20.52;;;;;;;10.16;100.00;150207.91;1786244;80;21007;-90
2022/10/29 02:52:42;;;;;;;33.85;20.70;;;;;;;10.13;100.00;150200.13;1785116;78;20928;-89
2022/10/29 02:55:10;;;;;;;39.08;23.32;;;;;;;10.12;100.00;150197.55;1785391;78;20968;-88
2022/10/29 02:57:37;;;;;;;41.02;24.10;;;;;;;10.13;100.00;150200.13;1740278;80;20929;-91
2022/10/29 03:00:05;;;;;;;42.67;26.77;;;;;;;10.15;100.00;150205.31;1758078;80;21584;-92
2022/10/29 03:02:32;;;;;;;46.75;27.62;;;;;;;10.16;100.00;150207.91;1764673;80;21651;-92
2022/10/29 03:04:59;;;;;;;38.58;23.27;;;;;;;10.18;100.00;150213.09;1765711;80;21006;-91
2022/10/29 03:07:27;;;;;;;31.35;21.05;;;;;;;10.20;100.00;150217.02;1778878;78;20993;-89
2022/10/29 03:09:55;;;;;;;31.93;22.17;;;;;;;10.22;100.00;150222.19;1774700;78;21115;-91
2022/10/29 03:12:22;;;;;;;35.00;22.52;;;;;;;10.23;100.00;150226.06;1767678;78;22000;-92
2022/10/29 03:14:50;;;;;;;33.42;22.58;;;;;;;10.23;100.00;150226.06;1766214;79;21053;-93
2022/10/29 03:17:17;;;;;;;35.52;22.82;;;;;;;10.21;100.00;150220.88;1771137;78;20989;-93
2022/10/29 03:19:45;;;;;;;42.73;27.22;;;;;;;10.21;100.00;150219.59;1756492;79;21112;-93
2022/10/29 03:22:14;;;;;;;46.37;30.00;;;;;;;10.21;100.00;150220.88;1753687;80;21135;-92
2022/10/29 03:24:46;;;;;;;45.73;29.50;;;;;;;10.23;100.00;150226.06;1784158;79;21888;-93
2022/10/29 03:27:14;;;;;;;46.80;29.57;;;;;;;10.22;100.00;150223.47;1785440;78;21126;-93
2022/10/29 03:29:43;;;;;;;50.03;31.75;;;;;;;10.21;100.00;150220.88;1784076;78;20995;-94
2022/10/29 03:32:10;;;;;;;44.53;28.55;;;;;;;10.21;100.00;150220.88;1780785;78;21135;-93
2022/10/29 03:34:38;;;;;;;36.60;25.80;;;;;;;10.22;100.00;150222.19;1781351;78;20937;-93
2022/10/29 03:37:08;;;;;;;37.93;26.35;;;;;;;10.21;100.00;150220.88;1776232;79;21401;-93
2022/10/29 03:39:35;;;;;;;39.53;24.52;;;;;;;10.22;100.00;150223.47;1753255;80;21030;-93
2022/10/29 03:42:03;;;;;;;35.00;23.20;;;;;;;10.23;100.00;150226.06;1746334;80;20998;-92
2022/10/29 03:44:30;;;;;;;34.78;21.37;;;;;;;10.25;100.00;150231.25;1727777;81;21020;-92
2022/10/29 03:46:57;;;;;;;37.03;23.45;;;;;;;10.26;100.00;150233.84;1767027;81;21060;-92
2022/10/29 03:49:25;;;;;;;31.60;22.90;;;;;;;10.27;100.00;150236.44;1762003;79;21145;-91
2022/10/29 03:51:54;;;;;;;30.52;21.87;;;;;;;10.27;100.00;150235.16;1787680;78;21000;-91
2022/10/29 03:54:22;;;;;;;29.70;20.27;;;;;;;10.27;100.00;150236.44;1783792;80;21040;-90
2022/10/29 03:56:51;;;;;;;29.90;21.15;;;;;;;10.26;100.00;150232.56;1785587;80;21004;-92
2022/10/29 03:59:18;;;;;;;30.82;22.17;;;;;;;10.22;100.00;150223.47;1785778;80;20945;-91
2022/10/29 04:01:48;;;;;;;31.65;22.27;;;;;;;10.20;100.00;150218.28;1786015;80;22027;-91
2022/10/29 04:04:15;;;;;;;35.15;23.32;;;;;;;10.17;100.00;150210.50;1764730;80;21049;-91
2022/10/29 04:06:43;;;;;;;30.72;21.12;;;;;;;10.15;100.00;150205.31;1701914;82;21068;-91
2022/10/29 04:09:13;;;;;;;32.67;21.82;;;;;;;10.15;100.00;150205.31;1748351;80;20965;-91
2022/10/29 04:11:41;;;;;;;33.75;22.45;;;;;;;10.12;100.00;150197.55;1746330;80;21135;-91
2022/10/29 04:14:08;;;;;;;34.53;22.02;;;;;;;10.11;100.00;150194.95;1749976;80;21235;-91
2022/10/29 04:16:38;;;;;;;28.85;21.05;;;;;;;10.10;100.00;150192.36;1749065;80;21107;-92
2022/10/29 04:19:06;;;;;;;30.77;20.77;;;;;;;10.09;100.00;150189.77;1750352;81;21008;-92
2022/10/29 04:21:33;;;;;;;28.55;20.08;;;;;;;10.08;100.00;150187.17;1746043;82;21047;-92
2022/10/29 04:24:03;;;;;;;29.32;19.67;;;;;;;10.08;100.00;150187.17;1746942;80;21073;-90
2022/10/29 04:26:31;;;;;;;32.95;19.25;;;;;;;10.07;100.00;150185.86;1749025;80;21290;-91
2022/10/29 04:28:59;;;;;;;30.25;19.65;;;;;;;10.07;100.00;150184.59;1744898;80;20918;-92
2022/10/29 04:31:26;;;;;;;28.87;19.70;;;;;;;10.06;100.00;150181.94;1747638;80;21100;-92
2022/10/29 04:33:54;;;;;;;32.30;20.55;;;;;;;10.06;100.00;150181.94;1748773;82;22029;-91
2022/10/29 04:36:22;;;;;;;25.57;19.12;;;;;;;10.05;100.00;150180.67;1748123;80;21005;-91
2022/10/29 04:38:50;;;;;;;26.65;19.57;;;;;;;10.04;100.00;150179.34;1777181;78;21286;-90
2022/10/29 04:41:17;;;;;;;30.37;20.00;;;;;;;10.06;100.00;150181.94;1773730;78;21012;-91
2022/10/29 04:43:44;;;;;;;29.32;19.67;;;;;;;10.07;100.00;150184.59;1763776;78;21033;-92
2022/10/29 04:46:11;;;;;;;30.90;20.65;;;;;;;10.07;100.00;150185.86;1767117;81;21135;-92
2022/10/29 04:48:40;;;;;;;34.60;20.55;;;;;;;10.05;100.00;150180.67;1783962;80;21088;-93
2022/10/29 04:51:23;;;;;;;27.48;19.02;;;;;;;10.03;100.00;150175.48;1785956;78;21691;-93
2022/10/29 04:53:52;;;;;;;29.42;18.67;;;;;;;10.02;100.00;150174.17;1723619;80;20973;-91
2022/10/29 04:56:19;;;;;;;27.00;19.05;;;;;;;10.04;100.00;150178.08;1720151;80;21499;-93
2022/10/29 04:58:46;;;;;;;27.40;17.87;;;;;;;10.11;100.00;150194.95;1747673;80;21064;-93
2022/10/29 05:01:13;;;;;;;26.93;17.85;;;;;;;10.19;100.00;150215.69;1744961;80;21521;-91
2022/10/29 05:03:42;;;;;;;27.45;17.40;;;;;;;10.23;100.00;150226.06;1749797;80;21382;-91
2022/10/29 05:06:12;;;;;;;29.90;17.10;;;;;;;10.26;100.00;150233.84;1739329;80;21565;-92
2022/10/29 05:08:39;;;;;;;24.15;16.25;;;;;;;10.28;100.00;150239.08;1750349;80;21110;-92
2022/10/29 05:11:06;;;;;;;29.25;16.90;;;;;;;10.30;100.00;150242.94;1737980;81;21072;-92
2022/10/29 05:13:33;;;;;;;26.02;16.30;;;;;;;10.30;100.00;150242.94;1731788;81;21001;-92
2022/10/29 05:16:01;;;;;;;24.87;16.42;;;;;;;10.30;100.00;150242.94;1733789;81;20978;-92
2022/10/29 05:18:29;;;;;;;27.73;17.17;;;;;;;10.27;100.00;150235.16;1744149;81;21017;-93
2022/10/29 05:20:57;;;;;;;27.30;17.27;;;;;;;10.25;100.00;150231.25;1775882;80;20969;-92
2022/10/29 05:23:25;;;;;;;30.95;16.57;;;;;;;10.23;100.00;150226.06;1771614;80;21247;-92
2022/10/29 05:25:54;;;;;;;28.15;16.62;;;;;;;10.23;100.00;150226.06;1771604;81;20980;-91
2022/10/29 05:28:22;;;;;;;24.95;17.48;;;;;;;10.29;100.00;150240.34;1759763;78;21278;-92
2022/10/29 05:30:50;;;;;;;28.90;17.45;;;;;;;10.31;100.00;150246.84;1746030;81;20981;-91
2022/10/29 05:33:22;;;;;;;26.48;16.90;;;;;;;10.35;100.00;150254.63;1772719;80;21036;-93
2022/10/29 05:35:52;;;;;;;25.25;15.80;;;;;;;10.43;100.00;150275.42;1774933;80;21017;-93
2022/10/29 05:38:19;;;;;;;30.17;18.20;;;;;;;10.46;100.00;150284.52;1771087;80;20989;-93
2022/10/29 05:40:46;;;;;;;24.37;16.30;;;;;;;10.48;100.00;150288.38;1756383;78;21193;-93
2022/10/29 05:43:15;;;;;;;21.85;15.28;;;;;;;10.50;100.00;150293.61;1772959;80;21107;-92
2022/10/29 05:45:43;;;;;;;32.25;17.62;;;;;;;10.53;100.00;150301.39;1774724;80;21028;-92
2022/10/29 05:48:10;;;;;;;24.30;16.40;;;;;;;10.55;100.00;150306.58;1768551;80;20969;-93
2022/10/29 05:50:39;;;;;;;25.08;17.23;;;;;;;10.55;100.00;150306.58;1773876;80;20929;-93
2022/10/29 05:53:10;;;;;;;28.65;16.45;;;;;;;10.58;100.00;150314.36;1763260;79;21211;-94
2022/10/29 05:55:37;;;;;;;23.90;15.72;;;;;;;10.68;100.00;150337.70;1746586;80;21044;-93
2022/10/29 05:58:08;;;;;;;21.40;15.03;;;;;;;10.80;100.00;150368.87;1773764;80;21025;-93
2022/10/29 06:00:37;;;;;;;25.50;14.58;;;;;;;10.94;100.00;150402.58;1774430;79;20983;-93
2022/10/29 06:03:18;;;;;;;26.57;16.17;;;;;;;11.07;100.00;150436.36;1775434;80;20977;-92
2022/10/29 06:05:49;;;;;;;17.37;12.55;;;;;;;11.18;100.00;150464.94;1767757;79;21831;-90
2022/10/29 06:08:17;;;;;;;25.15;15.05;;;;;;;11.30;100.00;150493.47;1767896;80;20948;-91
2022/10/29 06:10:44;;;;;;;23.22;14.70;;;;;;;11.39;100.00;150516.88;1771467;79;21016;-90
2022/10/29 06:13:16;;;;;;;24.77;14.98;;;;;;;11.46;100.00;150535.03;1763968;79;21047;-93
2022/10/29 06:15:49;;;;;;;26.87;14.35;;;;;;;11.55;100.00;150557.12;1768252;79;21406;-92
2022/10/29 06:18:16;;;;;;;19.25;12.45;;;;;;;11.65;100.00;150581.80;1769464;79;21059;-93
2022/10/29 06:20:43;;;;;;;21.62;14.38;;;;;;;11.82;100.00;150623.31;1765434;79;21030;-92
2022/10/29 06:23:12;;;;;;;25.32;14.30;;;;;;;11.93;100.00;150651.92;1765300;79;21445;-93
2022/10/29 06:25:40;;;;;;;19.70;12.98;;;;;;;12.04;100.00;150680.53;1764137;79;21425;-93
2022/10/29 06:28:09;;;;;;;19.40;12.23;;;;;;;12.18;100.00;150714.31;1755072;79;21478;-93
2022/10/29 06:30:36;;;;;;;23.25;12.15;;;;;;;12.28;100.00;150740.33;1758334;79;21966;-93
2022/10/29 06:33:04;;;;;;;21.10;12.58;;;;;;;12.41;100.00;150771.48;1763777;79;21040;-93
2022/10/29 06:35:32;;;;;;;18.90;12.05;;;;;;;12.52;100.00;150798.77;1758719;79;21084;-93
2022/10/29 06:37:59;;;;;;;18.32;11.30;;;;;;;12.60;100.00;150820.88;1768091;79;21001;-93
2022/10/29 06:40:28;;;;;;;17.52;10.70;;;;;;;12.71;100.00;150846.84;1753071;80;21585;-93
2022/10/29 06:43:05;;;;;;;19.70;11.73;;;;;;;12.80;100.00;150870.27;1761501;79;21446;-93
2022/10/29 06:45:33;;;;;;;16.57;10.10;;;;;;;12.89;100.00;150892.37;1749596;79;20909;-92
2022/10/29 06:48:01;;;;;;;20.35;11.38;;;;;;;12.96;100.00;150909.27;1766346;79;20898;-93
2022/10/29 06:50:28;;;;;;;16.00;10.20;;;;;;;13.03;100.00;150927.45;1765433;79;21580;-93
2022/10/29 06:53:00;;;;;;;18.95;11.18;;;;;;;13.11;100.00;150948.23;1748760;79;21017;-92
2022/10/29 06:55:27;;;;;;;18.87;10.93;;;;;;;13.17;100.00;150963.88;1752003;79;21280;-91
2022/10/29 06:58:00;;;;;;;15.90;11.03;;;;;;;13.26;100.00;150985.97;1764147;79;21026;-91
2022/10/29 07:00:29;;;;;;;18.00;11.45;;;;;;;13.33;100.00;151004.17;1758113;79;21106;-93
2022/10/29 07:02:57;;;;;;;20.27;10.60;;;;;;;13.41;100.00;151023.69;1760182;80;21080;-96
2022/10/29 07:05:25;;;;;;;20.08;10.75;;;;;;;13.49;100.00;151041.92;1752566;80;21140;-94
2022/10/29 07:08:00;;;;;;;14.73;10.58;;;;;;;13.52;100.00;151051.03;1765771;79;21247;-93
2022/10/29 07:10:30;;;;;;;15.32;9.73;;;;;;;13.57;100.00;151062.70;1730727;80;21024;-94
2022/10/29 07:12:57;;;;;;;13.50;9.35;;;;;;;13.64;99.98;151080.94;1770917;80;20968;-92
2022/10/29 07:15:25;;;;;;;15.45;9.83;;;;;;;13.70;99.60;151096.53;1764821;79;21227;-92
2022/10/29 07:18:03;;;;;;;14.40;8.90;;;;;;;13.80;99.29;151119.92;1766382;80;21006;-93
2022/10/29 07:20:34;;;;;;;19.10;10.03;;;;;;;13.89;99.17;151143.38;1769689;80;20901;-93
2022/10/29 07:23:01;;;;;;;12.73;7.92;;;;;;;13.99;98.38;151169.36;1771623;80;21036;-92
2022/10/29 07:25:30;;;;;;;13.83;8.90;;;;;;;14.10;97.98;151195.41;1753606;80;21075;-93
2022/10/29 07:28:15;;;;;;;15.35;8.53;;;;;;;14.20;96.63;151221.41;1771137;80;21056;-92
2022/10/29 07:30:43;;;;;;;13.13;8.20;;;;;;;14.29;95.16;151243.53;1751997;81;20965;-92
2022/10/29 07:33:11;;;;;;;10.78;7.42;;;;;;;14.37;94.11;151263.05;1759454;80;21378;-93
2022/10/29 07:35:38;;;;;;;12.18;7.67;;;;;;;14.49;93.00;151292.97;1783000;80;21064;-94
2022/10/29 07:38:06;;;;;;;10.90;7.08;;;;;;;14.59;92.49;151320.31;1750041;79;21759;-93
2022/10/29 07:40:34;;;;;;;9.70;6.40;;;;;;;14.72;91.78;151351.61;1756931;80;21016;-93
2022/10/29 07:43:01;;;;;;;12.28;6.72;;;;;;;14.83;90.04;151380.22;1752067;79;21158;-93
2022/10/29 07:45:30;;;;;;;8.65;6.58;;;;;;;14.93;87.59;151403.67;1756838;79;21208;-93
2022/10/29 07:48:01;;;;;;;9.45;6.37;;;;;;;15.00;85.61;151421.88;1749623;80;21071;-93
2022/10/29 07:50:31;;;;;;;11.55;6.28;;;;;;;15.03;83.86;151431.02;1759698;80;21084;-93
2022/10/29 07:52:59;;;;;;;12.82;6.10;;;;;;;15.12;83.69;151451.83;1749143;79;20936;-94
2022/10/29 07:55:29;;;;;;;9.33;6.12;;;;;;;15.18;81.23;151467.44;1746268;81;21031;-94
2022/10/29 07:58:01;;;;;;;8.78;5.37;;;;;;;15.22;79.49;151476.56;1742272;81;21107;-93
2022/10/29 08:00:31;;;;;;;8.43;5.70;;;;;;;15.27;79.42;151489.56;1757707;81;21048;-93
2022/10/29 08:02:58;;;;;;;7.83;5.70;;;;;;;15.36;78.51;151511.72;1762927;79;20965;-93
2022/10/29 08:05:30;;;;;;;8.30;5.58;;;;;;;15.44;77.61;151532.53;1764883;81;21027;-92
2022/10/29 08:07:59;;;;;;;10.25;5.40;;;;;;;15.53;77.04;151554.66;1761702;79;20941;-93
2022/10/29 08:10:26;;;;;;;9.25;6.67;;;;;;;15.62;76.36;151578.12;1747430;81;21470;-94
2022/10/29 08:12:57;;;;;;;7.85;5.30;;;;;;;15.69;75.14;151596.34;1768368;81;20985;-93
2022/10/29 08:15:34;;;;;;;11.93;5.67;;;;;;;15.76;74.44;151614.56;1758867;79;20933;-96
2022/10/29 08:17:58;;;;;;;9.38;5.70;;;;;;;15.84;74.17;151634.11;1746033;79;20996;-94
2022/10/29 08:20:26;;;;;;;8.98;5.92;;;;;;;15.91;73.35;151651.11;1751023;79;21053;-94
2022/10/29 08:22:53;;;;;;;10.08;6.33;;;;;;;15.94;72.59;151658.91;1730732;80;21145;-92
2022/10/29 08:25:20;;;;;;;10.45;5.50;;;;;;;15.96;72.04;151664.13;1728842;80;21059;-93
2022/10/29 08:28:03;;;;;;;8.33;5.75;;;;;;;16.00;72.43;151674.53;1740335;80;21033;-95
2022/10/29 08:30:31;;;;;;;9.55;5.58;;;;;;;16.06;71.72;151688.88;1739954;80;20994;-95
2022/10/29 08:33:00;;;;;;;9.43;6.37;;;;;;;16.13;71.66;151705.81;1665326;82;21105;-91
2022/10/29 08:35:27;;;;;;;7.62;5.67;;;;;;;16.19;71.28;151721.44;1746663;80;21213;-95
2022/10/29 08:37:58;;;;;;;12.65;5.67;;;;;;;16.22;70.31;151729.25;1769352;78;20956;-91
2022/10/29 08:41:09;;;;;;;6.97;5.17;;;;;;;16.24;69.91;151734.45;1756393;78;21040;-92
2022/10/29 08:44:24;;;;;;;8.68;5.15;;;;;;;16.27;68.78;151742.31;1784527;78;21151;-91
2022/10/29 08:47:06;;;;;;;7.58;5.42;;;;;;;16.27;68.96;151742.31;1761245;79;21123;-91
2022/10/29 08:49:40;;;;;;;7.67;5.67;;;;;;;16.27;69.21;151740.98;1748476;79;21682;-92
2022/10/29 08:52:18;;;;;;;15.43;5.78;;;;;;;16.25;69.24;151737.11;1751260;79;21497;-92
2022/10/29 08:54:47;;;;;;;9.18;6.17;;;;;;;16.28;68.83;151744.91;1761280;79;21127;-93
2022/10/29 08:57:15;;;;;;;8.55;5.35;;;;;;;16.29;68.84;151747.52;1744399;79;21170;-91
2022/10/29 09:00:06;;;;;;;9.88;5.53;;;;;;;16.33;69.58;151756.61;1762670;80;21574;-92
2022/10/29 09:02:33;;;;;;;9.10;6.10;;;;;;;16.42;69.93;151778.77;1758328;81;21426;-91
2022/10/29 09:05:00;;;;;;;12.63;6.53;;;;;;;16.51;69.65;151802.25;1756151;79;20989;-91
2022/10/29 09:07:56;;;;;;;7.92;6.10;;;;;;;16.55;69.25;151811.33;1800791;78;21433;-93
2022/10/29 09:10:52;;;;;;;7.97;6.05;;;;;;;16.54;68.51;151810.06;1764547;78;21028;-94
2022/10/29 09:14:13;;;;;;;8.03;5.87;;;;;;;16.49;69.02;151795.72;1762853;80;20941;-93
2022/10/29 09:17:02;;;;;;;8.00;5.55;;;;;;;16.45;69.86;151786.56;1748502;79;21340;-96
2022/10/29 09:20:09;;;;;;;11.10;5.97;;;;;;;16.45;70.23;151786.56;1764870;79;21457;-96
2022/10/29 09:23:12;;;;;;;10.68;5.67;;;;;;;16.47;70.84;151791.83;1755489;78;21136;-88
2022/10/29 09:25:59;;;;;;;10.10;6.17;;;;;;;16.50;70.86;151798.31;1781522;79;21154;-91
2022/10/29 09:28:48;;;;;;;9.68;5.97;;;;;;;16.47;71.10;151791.83;1801288;78;21053;-92
2022/10/29 09:31:36;;;;;;;8.95;6.08;;;;;;;16.49;71.10;151797.03;1736071;80;21431;-89
2022/10/29 09:34:16;;;;;;;8.50;6.28;;;;;;;16.48;71.32;151794.44;1758446;79;21462;-88
2022/10/29 09:36:45;;;;;;;7.85;5.55;;;;;;;16.52;70.99;151803.53;1769854;78;21223;-90
2022/10/29 09:39:15;;;;;;;11.55;6.10;;;;;;;16.53;70.56;151807.45;1780704;78;21036;-94
2022/10/29 09:41:43;;;;;;;7.90;6.08;;;;;;;16.52;69.98;151804.84;1733967;81;21433;-96
2022/10/29 09:44:22;;;;;;;9.43;6.75;;;;;;;16.54;70.36;151808.73;1741619;80;21123;-90
2022/10/29 09:47:14;;;;;;;9.33;6.03;;;;;;;16.57;70.90;151816.55;1749509;81;21046;-91
2022/10/29 09:49:59;;;;;;;9.68;5.90;;;;;;;16.59;70.83;151823.08;1691155;82;21148;-89
2022/10/29 09:52:32;;;;;;;6.97;5.55;;;;;;;16.63;70.26;151830.89;1734039;81;21041;-90
2022/10/29 09:55:00;;;;;;;7.58;5.42;;;;;;;16.64;69.79;151833.50;1766822;80;20945;-92
2022/10/29 09:57:30;;;;;;;7.55;5.50;;;;;;;16.64;69.61;151833.50;1734671;80;20968;-92
2022/10/29 10:00:02;;;;;;;12.43;5.92;;;;;;;16.68;69.78;151843.91;1703751;82;21065;-91
2022/10/29 10:02:53;;;;;;;8.30;5.30;;;;;;;16.71;69.25;151851.77;1717769;80;21508;-91
2022/10/29 10:05:27;;;;;;;7.92;5.50;;;;;;;16.69;68.82;151847.84;1749599;81;21137;-90
2022/10/29 10:08:12;;;;;;;9.28;5.37;;;;;;;16.66;69.40;151838.70;1784089;79;21087;-92
2022/10/29 10:10:51;;;;;;;6.90;5.20;;;;;;;16.64;70.49;151833.50;1756216;80;39712;-89
2022/10/29 10:13:23;;;;;;;8.80;5.87;;;;;;;16.61;71.19;151828.28;1778601;78;22125;-90
2022/10/29 10:15:58;;;;;;;9.35;5.35;;;;;;;16.64;71.25;151833.50;1767222;79;21088;-90
2022/10/29 10:18:40;;;;;;;7.53;5.00;;;;;;;16.65;71.86;151837.42;1767604;78;20951;-90
2022/10/29 10:21:14;;;;;;;9.15;5.62;;;;;;;16.66;72.22;151838.70;1770008;80;21021;-90
2022/10/29 10:23:51;;;;;;;10.48;5.80;;;;;;;16.70;72.77;151850.44;1714252;82;21916;-91
2022/10/29 10:26:41;;;;;;;8.78;5.80;;;;;;;16.72;73.17;151854.37;1727318;82;21048;-90
2022/10/29 10:29:18;;;;;;;8.93;5.87;;;;;;;16.73;72.39;151856.98;1783830;80;21040;-91
2022/10/29 10:31:50;;;;;;;9.03;5.80;;;;;;;16.70;71.94;151849.17;1784312;80;21528;-90
2022/10/29 10:34:26;;;;;;;9.78;5.42;;;;;;;16.70;72.09;151849.17;1784293;78;21473;-90
2022/10/29 10:36:56;;;;;;;10.38;5.72;;;;;;;16.73;71.98;151858.25;1783908;80;21197;-91
2022/10/29 10:39:30;;;;;;;7.10;5.65;;;;;;;16.75;71.51;151862.19;1782530;80;21112;-92
2022/10/29 10:42:01;;;;;;;7.22;4.97;;;;;;;16.76;71.64;151864.78;1784015;80;21028;-91
2022/10/29 10:44:28;;;;;;;10.93;6.40;;;;;;;16.78;72.85;151870.00;1734103;78;21064;-89
2022/10/29 10:46:58;;;;;;;9.15;6.20;;;;;;;16.78;73.31;151870.00;1770341;78;21214;-89
2022/10/29 10:49:36;;;;;;;9.33;6.12;;;;;;;16.79;73.96;151872.59;1762384;80;21790;-91
2022/10/29 10:52:07;;;;;;;8.30;5.65;;;;;;;16.82;74.57;151880.42;1762847;80;20978;-90
2022/10/29 10:54:40;;;;;;;7.92;5.47;;;;;;;16.88;75.06;151894.77;1769712;80;21603;-94
2022/10/29 10:57:16;;;;;;;7.50;5.70;;;;;;;16.92;73.75;151903.91;1781583;80;20997;-96
2022/10/29 11:00:08;;;;;;;8.53;5.50;;;;;;;16.95;72.48;151911.72;1779201;78;21036;-96
2022/10/29 11:03:07;;;;;;;10.00;6.08;;;;;;;16.94;71.58;151910.41;1783863;78;20945;-90
2022/10/29 11:05:40;;;;;;;8.98;5.55;;;;;;;16.96;71.25;151914.33;1783593;80;21040;-90
2022/10/29 11:08:25;;;;;;;8.95;5.70;;;;;;;16.98;71.39;151920.86;1764620;81;21609;-91
2022/10/29 11:11:09;;;;;;;7.83;5.20;;;;;;;16.93;72.14;151906.52;1749415;80;20986;-91
2022/10/29 11:13:37;;;;;;;6.55;5.37;;;;;;;16.82;72.97;151880.42;1724561;81;21493;-91
2022/10/29 11:16:30;;;;;;;9.13;5.60;;;;;;;16.71;73.29;151851.77;1760771;80;21230;-90
2022/10/29 11:19:25;;;;;;;9.55;5.47;;;;;;;16.59;73.82;151823.08;1765205;81;21016;-89
2022/10/29 11:22:17;;;;;;;7.33;4.87;;;;;;;16.49;74.86;151797.03;1765249;80;21231;-89
2022/10/29 11:25:16;;;;;;;9.95;5.47;;;;;;;16.40;75.20;151773.55;1766105;80;21025;-89
2022/10/29 11:28:00;;;;;;;8.05;5.12;;;;;;;16.32;75.76;151755.33;1763652;81;21048;-91
2022/10/29 11:30:30;;;;;;;8.73;5.58;;;;;;;16.24;76.69;151734.45;1765277;81;21156;-90
2022/10/29 11:33:23;;;;;;;10.20;5.60;;;;;;;16.16;77.40;151714.95;1764607;80;21065;-89
2022/10/29 11:36:19;;;;;;;7.60;5.37;;;;;;;16.10;78.20;151699.28;1765740;81;21054;-89
2022/10/29 11:38:56;;;;;;;7.25;5.58;;;;;;;16.02;79.25;151679.73;1784604;80;20996;-89
2022/10/29 11:41:38;;;;;;;6.70;5.05;;;;;;;16.01;80.28;151675.86;1774032;80;20973;-88